Aviation Digital Data Service (ADDS)

Output produced by TAFs form (1314 UTC 24 January 2017)
found at http://aviationweather.gov/adds/tafs/
 
KDRO 241229Z 2412/2512 00000KT P6SM BKN035 OVC070 
     TEMPO 2412/2415 2SM -SN BR BKN020 
     FM241700 24007KT 3SM -SHSN OVC020 
     FM242000 26012KT P6SM VCSH BKN035 
     FM250100 26009KT P6SM BKN040 
     FM250500 28005KT P6SM BKN060